Time,TemperatureF,DewpointF,PressureIn,WindDirection,WindDirectionDegrees,WindSpeedMPH,WindSpeedGustMPH,Humidity,HourlyPrecipIn,Conditions,Clouds,dailyrainin,SoftwareType,DateUTC
2013-07-01 00:05:00,77.4,56.0,30.07,NE,53,4.0,13.0,47,0.00,,,0.00,weatherlink.com 1.10,2013-07-01 06:05:00,
2013-07-01 00:20:00,77.1,55.0,30.10,NE,38,11.0,16.0,46,0.00,,,0.00,weatherlink.com 1.10,2013-07-01 06:20:00,
2013-07-01 00:36:00,74.1,58.0,30.13,North,360,17.0,31.0,57,0.00,,,0.00,weatherlink.com 1.10,2013-07-01 06:36:00,
2013-07-01 00:51:00,71.5,58.0,30.15,NNE,25,7.0,30.0,63,0.00,,,0.00,weatherlink.com 1.10,2013-07-01 06:51:00,
2013-07-01 01:06:00,70.6,59.0,30.15,WNW,296,12.0,20.0,66,0.00,,,0.00,weatherlink.com 1.10,2013-07-01 07:06:00,
2013-07-01 01:21:00,70.2,60.0,30.16,North,360,7.0,22.0,71,0.00,,,0.00,weatherlink.com 1.10,2013-07-01 07:21:00,
2013-07-01 01:36:00,69.3,60.0,30.15,NNW,336,11.0,20.0,72,0.00,,,0.00,weatherlink.com 1.10,2013-07-01 07:36:00,
2013-07-01 01:52:00,69.2,59.0,30.14,NNW,340,12.0,17.0,70,0.00,,,0.00,weatherlink.com 1.10,2013-07-01 07:52:00,
2013-07-01 02:07:00,69.8,58.0,30.13,North,10,4.0,18.0,66,0.00,,,0.00,weatherlink.com 1.10,2013-07-01 08:07:00,
2013-07-01 02:22:00,69.9,58.0,30.12,NNE,13,10.0,19.0,66,0.00,,,0.00,weatherlink.com 1.10,2013-07-01 08:22:00,
2013-07-01 02:37:00,69.2,59.0,30.12,NNW,332,16.0,16.0,70,0.00,,,0.00,weatherlink.com 1.10,2013-07-01 08:37:00,
2013-07-01 02:52:00,69.2,59.0,30.12,NNE,16,5.0,16.0,69,0.00,,,0.00,weatherlink.com 1.10,2013-07-01 08:52:00,
2013-07-01 03:07:00,69.3,59.0,30.13,ENE,78,7.0,9.0,71,0.00,,,0.00,weatherlink.com 1.10,2013-07-01 09:07:00,
2013-07-01 03:22:00,68.2,59.0,30.14,NE,56,7.0,9.0,72,0.00,,,0.00,weatherlink.com 1.10,2013-07-01 09:22:00,
2013-07-01 03:38:00,67.5,59.0,30.15,NE,53,2.0,11.0,74,0.00,,,0.00,weatherlink.com 1.10,2013-07-01 09:38:00,
2013-07-01 03:53:00,67.6,59.0,30.16,NNW,327,3.0,8.0,73,0.00,,,0.00,weatherlink.com 1.10,2013-07-01 09:53:00,
2013-07-01 04:08:00,67.6,59.0,30.17,NW,319,6.0,10.0,73,0.00,,,0.00,weatherlink.com 1.10,2013-07-01 10:08:00,
2013-07-01 04:23:00,67.5,58.0,30.16,NW,307,4.0,11.0,72,0.00,,,0.00,weatherlink.com 1.10,2013-07-01 10:23:00,
2013-07-01 04:38:00,67.6,57.0,30.16,NW,315,5.0,11.0,70,0.00,,,0.00,weatherlink.com 1.10,2013-07-01 10:38:00,
2013-07-01 04:54:00,67.8,57.0,30.16,NW,309,5.0,10.0,69,0.00,,,0.00,weatherlink.com 1.10,2013-07-01 10:54:00,
2013-07-01 05:09:00,67.9,57.0,30.16,NW,313,3.0,9.0,68,0.00,,,0.00,weatherlink.com 1.10,2013-07-01 11:09:00,
2013-07-01 05:24:00,68.1,57.0,30.16,NW,305,8.0,8.0,68,0.00,,,0.00,weatherlink.com 1.10,2013-07-01 11:24:00,
2013-07-01 05:39:00,68.3,57.0,30.16,NW,312,2.0,9.0,68,0.00,,,0.00,weatherlink.com 1.10,2013-07-01 11:39:00,
2013-07-01 05:54:00,68.6,58.0,30.17,NNW,331,5.0,10.0,68,0.00,,,0.00,weatherlink.com 1.10,2013-07-01 11:54:00,
2013-07-01 06:09:00,68.2,58.0,30.18,North,351,10.0,11.0,70,0.00,,,0.00,weatherlink.com 1.10,2013-07-01 12:09:00,
2013-07-01 06:25:00,67.1,59.0,30.18,NNW,330,6.0,12.0,75,0.00,,,0.00,weatherlink.com 1.10,2013-07-01 12:25:00,
2013-07-01 06:40:00,66.9,58.0,30.18,NW,321,7.0,10.0,74,0.00,,,0.00,weatherlink.com 1.10,2013-07-01 12:40:00,
2013-07-01 06:55:00,67.7,59.0,30.18,NW,317,5.0,8.0,73,0.00,,,0.00,weatherlink.com 1.10,2013-07-01 12:55:00,
2013-07-01 07:10:00,68.1,60.0,30.18,NW,317,5.0,8.0,75,0.00,,,0.00,weatherlink.com 1.10,2013-07-01 13:10:00,
2013-07-01 07:26:00,68.3,60.0,30.19,NNW,333,3.0,7.0,75,0.00,,,0.00,weatherlink.com 1.10,2013-07-01 13:26:00,
2013-07-01 07:41:00,68.6,60.0,30.19,North,355,5.0,6.0,75,0.00,,,0.00,weatherlink.com 1.10,2013-07-01 13:41:00,
2013-07-01 07:56:00,68.5,61.0,30.20,NW,324,4.0,8.0,76,0.00,,,0.00,weatherlink.com 1.10,2013-07-01 13:56:00,
2013-07-01 08:11:00,68.7,61.0,30.20,NNE,17,5.0,9.0,76,0.00,,,0.00,weatherlink.com 1.10,2013-07-01 14:11:00,
2013-07-01 08:26:00,68.9,61.0,30.21,NNW,332,5.0,8.0,76,0.00,,,0.00,weatherlink.com 1.10,2013-07-01 14:26:00,
2013-07-01 08:41:00,69.4,61.0,30.21,North,5,0.0,5.0,75,0.00,,,0.00,weatherlink.com 1.10,2013-07-01 14:41:00,
2013-07-01 08:57:00,69.9,61.0,30.21,East,94,5.0,5.0,73,0.00,,,0.00,weatherlink.com 1.10,2013-07-01 14:57:00,
2013-07-01 09:12:00,70.5,61.0,30.21,SSE,147,2.0,6.0,71,0.00,,,0.00,weatherlink.com 1.10,2013-07-01 15:12:00,
2013-07-01 09:27:00,71.0,61.0,30.21,ESE,109,2.0,8.0,70,0.00,,,0.00,weatherlink.com 1.10,2013-07-01 15:27:00,
2013-07-01 09:42:00,71.6,60.0,30.21,SSE,153,2.0,7.0,68,0.00,,,0.00,weatherlink.com 1.10,2013-07-01 15:42:00,
2013-07-01 09:57:00,72.3,61.0,30.21,South,169,4.0,7.0,67,0.00,,,0.00,weatherlink.com 1.10,2013-07-01 15:57:00,
2013-07-01 10:12:00,73.9,61.0,30.21,South,179,3.0,7.0,63,0.00,,,0.00,weatherlink.com 1.10,2013-07-01 16:12:00,
2013-07-01 10:28:00,75.1,60.0,30.21,SSW,196,5.0,9.0,60,0.00,,,0.00,weatherlink.com 1.10,2013-07-01 16:28:00,
2013-07-01 10:43:00,76.1,61.0,30.21,South,178,5.0,12.0,59,0.00,,,0.00,weatherlink.com 1.10,2013-07-01 16:43:00,
2013-07-01 10:58:00,77.3,60.0,30.21,South,170,5.0,15.0,56,0.00,,,0.00,weatherlink.com 1.10,2013-07-01 16:58:00,
2013-07-01 11:13:00,76.8,60.0,30.21,ESE,118,3.0,12.0,57,0.00,,,0.00,weatherlink.com 1.10,2013-07-01 17:13:00,
2013-07-01 11:28:00,77.5,60.0,30.21,ESE,104,7.0,10.0,55,0.00,,,0.00,weatherlink.com 1.10,2013-07-01 17:28:00,
2013-07-01 11:43:00,77.0,60.0,30.20,ESE,106,4.0,13.0,55,0.00,,,0.00,weatherlink.com 1.10,2013-07-01 17:43:00,
2013-07-01 11:59:00,78.0,58.0,30.20,SE,126,9.0,12.0,51,0.00,,,0.00,weatherlink.com 1.10,2013-07-01 17:59:00,
2013-07-01 12:14:00,79.7,58.0,30.19,South,176,4.0,12.0,48,0.00,,,0.00,weatherlink.com 1.10,2013-07-01 18:14:00,
2013-07-01 12:29:00,81.9,58.0,30.19,ESE,108,8.0,13.0,44,0.00,,,0.00,weatherlink.com 1.10,2013-07-01 18:29:00,
2013-07-01 12:44:00,82.3,58.0,30.19,SE,126,8.0,16.0,44,0.00,,,0.00,weatherlink.com 1.10,2013-07-01 18:44:00,
2013-07-01 12:59:00,82.1,58.0,30.18,SSE,148,8.0,12.0,44,0.00,,,0.00,weatherlink.com 1.10,2013-07-01 18:59:00,
2013-07-01 13:15:00,84.1,57.0,30.18,SE,135,4.0,13.0,40,0.00,,,0.00,weatherlink.com 1.10,2013-07-01 19:15:00,
2013-07-01 13:30:00,82.5,57.0,30.18,SSE,149,5.0,14.0,42,0.00,,,0.00,weatherlink.com 1.10,2013-07-01 19:30:00,
2013-07-01 13:45:00,83.1,57.0,30.17,SE,137,13.0,17.0,41,0.00,,,0.00,weatherlink.com 1.10,2013-07-01 19:45:00,
2013-07-01 14:00:00,84.3,57.0,30.16,ESE,107,4.0,15.0,40,0.00,,,0.00,weatherlink.com 1.10,2013-07-01 20:00:00,
2013-07-01 14:16:00,84.3,57.0,30.16,SE,142,2.0,19.0,39,0.00,,,0.00,weatherlink.com 1.10,2013-07-01 20:16:00,
2013-07-01 14:46:00,88.3,56.0,30.14,SSE,160,7.0,21.0,34,0.00,,,0.00,weatherlink.com 1.10,2013-07-01 20:46:00,
2013-07-01 15:01:00,86.3,55.0,30.14,SE,130,9.0,15.0,35,0.00,,,0.00,weatherlink.com 1.10,2013-07-01 21:01:00,
2013-07-01 15:16:00,87.0,56.0,30.13,SSE,150,7.0,13.0,35,0.00,,,0.00,weatherlink.com 1.10,2013-07-01 21:16:00,
2013-07-01 15:32:00,87.9,55.0,30.13,ESE,117,4.0,13.0,33,0.00,,,0.00,weatherlink.com 1.10,2013-07-01 21:32:00,
2013-07-01 15:47:00,86.4,56.0,30.12,East,85,3.0,17.0,35,0.00,,,0.00,weatherlink.com 1.10,2013-07-01 21:47:00,
2013-07-01 16:02:00,89.2,55.0,30.11,East,87,7.0,18.0,31,0.00,,,0.00,weatherlink.com 1.10,2013-07-01 22:02:00,
2013-07-01 16:17:00,89.4,56.0,30.10,ESE,115,10.0,11.0,32,0.00,,,0.00,weatherlink.com 1.10,2013-07-01 22:17:00,
2013-07-01 16:32:00,88.2,54.0,30.10,SE,134,9.0,16.0,31,0.00,,,0.00,weatherlink.com 1.10,2013-07-01 22:32:00,
2013-07-01 16:47:00,89.1,54.0,30.09,East,93,10.0,16.0,30,0.00,,,0.00,weatherlink.com 1.10,2013-07-01 22:47:00,
2013-07-01 17:03:00,87.1,54.0,30.08,East,98,3.0,14.0,32,0.00,,,0.00,weatherlink.com 1.10,2013-07-01 23:03:00,
2013-07-01 17:18:00,88.4,54.0,30.09,SE,125,9.0,14.0,31,0.00,,,0.00,weatherlink.com 1.10,2013-07-01 23:18:00,
2013-07-01 17:33:00,88.2,54.0,30.09,ESE,123,9.0,16.0,31,0.00,,,0.00,weatherlink.com 1.10,2013-07-01 23:33:00,
2013-07-01 17:48:00,88.1,54.0,30.08,East,99,14.0,14.0,31,0.00,,,0.00,weatherlink.com 1.10,2013-07-01 23:48:00,
2013-07-01 18:03:00,87.0,54.0,30.08,ESE,105,7.0,14.0,32,0.00,,,0.00,weatherlink.com 1.10,2013-07-02 00:03:00,
2013-07-01 18:18:00,86.4,54.0,30.08,ESE,103,9.0,13.0,33,0.00,,,0.00,weatherlink.com 1.10,2013-07-02 00:18:00,
2013-07-01 18:34:00,85.8,53.0,30.08,SE,128,2.0,13.0,33,0.00,,,0.00,weatherlink.com 1.10,2013-07-02 00:34:00,
2013-07-01 18:49:00,85.0,53.0,30.09,East,96,8.0,17.0,33,0.00,,,0.00,weatherlink.com 1.10,2013-07-02 00:49:00,
2013-07-01 19:04:00,83.9,53.0,30.09,East,92,10.0,14.0,34,0.00,,,0.00,weatherlink.com 1.10,2013-07-02 01:04:00,
2013-07-01 19:19:00,82.9,53.0,30.09,ESE,104,5.0,12.0,36,0.00,,,0.00,weatherlink.com 1.10,2013-07-02 01:19:00,
2013-07-01 19:34:00,81.9,53.0,30.10,East,89,14.0,15.0,37,0.00,,,0.00,weatherlink.com 1.10,2013-07-02 01:34:00,
2013-07-01 19:49:00,80.4,52.0,30.11,ESE,118,7.0,12.0,38,0.00,,,0.00,weatherlink.com 1.10,2013-07-02 01:49:00,
2013-07-01 20:05:00,79.6,53.0,30.12,ESE,111,5.0,15.0,40,0.00,,,0.00,weatherlink.com 1.10,2013-07-02 02:05:00,
2013-07-01 20:20:00,79.0,53.0,30.13,ESE,109,3.0,13.0,41,0.00,,,0.00,weatherlink.com 1.10,2013-07-02 02:20:00,
2013-07-01 20:35:00,78.4,53.0,30.13,ESE,119,10.0,15.0,42,0.00,,,0.00,weatherlink.com 1.10,2013-07-02 02:35:00,
2013-07-01 20:50:00,77.7,54.0,30.14,East,101,9.0,16.0,44,0.00,,,0.00,weatherlink.com 1.10,2013-07-02 02:50:00,
2013-07-01 21:06:00,77.1,54.0,30.15,East,87,10.0,18.0,45,0.00,,,0.00,weatherlink.com 1.10,2013-07-02 03:06:00,
2013-07-01 21:21:00,76.6,55.0,30.16,East,99,17.0,17.0,47,0.00,,,0.00,weatherlink.com 1.10,2013-07-02 03:21:00,
2013-07-01 21:36:00,76.2,56.0,30.17,SE,142,5.0,12.0,49,0.00,,,0.00,weatherlink.com 1.10,2013-07-02 03:36:00,
2013-07-01 21:51:00,76.0,56.0,30.20,East,83,6.0,13.0,50,0.00,,,0.00,weatherlink.com 1.10,2013-07-02 03:51:00,
2013-07-01 22:06:00,75.8,56.0,30.23,NNE,29,7.0,14.0,51,0.00,,,0.00,weatherlink.com 1.10,2013-07-02 04:06:00,
2013-07-01 22:22:00,66.6,58.0,30.25,NW,317,11.0,20.0,75,0.05,,,0.05,weatherlink.com 1.10,2013-07-02 04:22:00,
2013-07-01 22:37:00,64.4,59.0,30.24,West,275,0.0,7.0,84,0.09,,,0.10,weatherlink.com 1.10,2013-07-02 04:37:00,
2013-07-01 22:52:00,64.8,60.0,30.19,SW,223,7.0,9.0,84,0.13,,,0.13,weatherlink.com 1.10,2013-07-02 04:52:00,
2013-07-01 23:07:00,65.8,60.0,30.23,NNW,344,7.0,12.0,82,0.16,,,0.16,weatherlink.com 1.10,2013-07-02 05:07:00,
2013-07-01 23:22:00,65.3,60.0,30.23,NNW,333,1.0,11.0,83,0.14,,,0.19,weatherlink.com 1.10,2013-07-02 05:22:00,
2013-07-01 23:37:00,65.4,61.0,30.21,WNW,302,0.0,2.0,85,0.11,,,0.21,weatherlink.com 1.10,2013-07-02 05:37:00,
2013-07-01 23:52:00,66.1,61.0,30.21,SSW,197,0.0,5.0,85,0.09,,,0.22,weatherlink.com 1.10,2013-07-02 05:52:00,